createdAt,value
2019-05-17T00:00:27.362Z,18.98
2019-05-17T00:02:59.523Z,18.99
2019-05-17T00:05:31.064Z,18.98
2019-05-17T00:08:02.805Z,18.97
2019-05-17T00:10:34.426Z,18.95
2019-05-17T00:13:07.571Z,18.93
2019-05-17T00:15:41.090Z,18.89
2019-05-17T00:18:12.769Z,18.87
2019-05-17T00:20:46.683Z,18.84
2019-05-17T00:23:18.726Z,18.82
2019-05-17T00:25:51.528Z,18.77
2019-05-17T00:28:23.187Z,18.66
2019-05-17T00:30:56.987Z,18.70
2019-05-17T00:33:28.275Z,18.68
2019-05-17T00:36:00.030Z,18.64
2019-05-17T00:38:44.819Z,18.60
2019-05-17T00:41:07.030Z,18.58
2019-05-17T00:43:38.486Z,18.60
2019-05-17T00:46:10.184Z,18.54
2019-05-17T00:48:42.317Z,18.56
2019-05-17T00:51:13.993Z,18.51
2019-05-17T00:53:46.934Z,18.48
2019-05-17T00:56:18.683Z,18.43
2019-05-17T00:58:51.861Z,18.46
2019-05-17T01:01:23.735Z,18.44
2019-05-17T01:03:57.150Z,18.41
2019-05-17T01:06:28.777Z,18.41
2019-05-17T01:09:03.993Z,18.37
2019-05-17T01:11:36.625Z,18.32
2019-05-17T01:14:08.034Z,18.37
2019-05-17T01:16:39.844Z,18.38
2019-05-17T01:19:12.451Z,18.41
2019-05-17T01:21:44.130Z,18.38
2019-05-17T01:24:17.327Z,18.35
2019-05-17T01:26:50.498Z,18.34
2019-05-17T01:29:26.702Z,18.35
2019-05-17T01:31:58.064Z,18.30
2019-05-17T01:34:29.914Z,18.29
2019-05-17T01:37:01.577Z,18.28
2019-05-17T01:39:33.673Z,18.28
2019-05-17T01:42:06.803Z,18.30
2019-05-17T01:44:38.853Z,18.29
2019-05-17T01:47:10.688Z,18.29
2019-05-17T01:49:42.291Z,18.28
2019-05-17T01:52:13.946Z,18.27
2019-05-17T01:54:46.926Z,18.24
2019-05-17T01:57:19.946Z,18.25
2019-05-17T01:59:51.597Z,18.23
2019-05-17T02:02:33.834Z,18.15
2019-05-17T02:05:07.873Z,18.06
2019-05-17T02:07:40.744Z,18.08
2019-05-17T02:10:16.553Z,18.05
2019-05-17T02:12:49.051Z,18.08
2019-05-17T02:15:21.682Z,18.08
2019-05-17T02:17:53.236Z,18.04
2019-05-17T02:20:27.388Z,18.04
2019-05-17T02:22:59.649Z,18.07
2019-05-17T02:25:31.392Z,17.98
2019-05-17T02:28:03.328Z,18.08
2019-05-17T02:30:35.279Z,18.11
2019-05-17T02:33:07.390Z,18.11
2019-05-17T02:35:38.981Z,18.12
2019-05-17T02:38:13.239Z,18.25
2019-05-17T02:40:44.066Z,18.37
2019-05-17T02:43:15.716Z,18.55
2019-05-17T02:45:47.453Z,18.76
2019-05-17T02:48:19.073Z,18.92
2019-05-17T02:50:53.181Z,19.07
2019-05-17T02:53:23.949Z,19.26
2019-05-17T02:55:55.564Z,19.48
2019-05-17T02:58:27.109Z,19.73
2019-05-17T03:00:58.754Z,19.96
2019-05-17T03:03:32.353Z,20.06
2019-05-17T03:06:03.737Z,20.20
2019-05-17T03:08:35.597Z,20.43
2019-05-17T03:11:07.406Z,20.62
2019-05-17T03:13:39.078Z,20.67
2019-05-17T03:16:14.291Z,20.83
2019-05-17T03:18:44.187Z,21.07
2019-05-17T03:21:15.981Z,21.32
2019-05-17T03:23:48.025Z,21.48
2019-05-17T03:26:22.852Z,21.68
2019-05-17T03:28:53.861Z,21.86
2019-05-17T03:31:27.156Z,22.02
2019-05-17T03:34:06.235Z,22.08
2019-05-17T03:36:36.417Z,22.20
2019-05-17T03:39:08.495Z,22.58
2019-05-17T03:41:42.855Z,22.62
2019-05-17T03:44:13.899Z,22.63
2019-05-17T03:46:47.097Z,22.88
2019-05-17T03:49:18.875Z,22.85
2019-05-17T03:51:53.184Z,22.93
2019-05-17T03:54:24.066Z,22.82
2019-05-17T03:56:55.958Z,22.69
2019-05-17T03:59:27.668Z,22.47
2019-05-17T04:01:59.252Z,22.32
2019-05-17T04:04:33.200Z,22.70
2019-05-17T04:07:06.460Z,22.95
2019-05-17T04:09:39.549Z,22.61
2019-05-17T04:12:13.610Z,22.64
2019-05-17T04:14:45.850Z,22.87
2019-05-17T04:17:17.494Z,23.21
2019-05-17T04:19:49.269Z,23.63
2019-05-17T04:22:23.632Z,23.77
2019-05-17T04:24:54.493Z,23.61
2019-05-17T04:27:26.118Z,23.81
2019-05-17T04:30:03.320Z,24.29
2019-05-17T04:32:33.567Z,24.80
2019-05-17T04:35:06.191Z,25.06
2019-05-17T04:37:38.783Z,25.41
2019-05-17T04:40:13.655Z,25.60
2019-05-17T04:42:44.807Z,26.20
2019-05-17T04:45:16.817Z,26.12
2019-05-17T04:47:52.666Z,26.25
2019-05-17T04:50:23.366Z,26.35
2019-05-17T04:52:55.080Z,26.24
2019-05-17T04:55:33.789Z,26.03
2019-05-17T04:58:04.724Z,26.10
2019-05-17T05:00:37.815Z,26.34
2019-05-17T05:03:12.471Z,26.15
2019-05-17T05:05:43.869Z,26.01
2019-05-17T05:08:17.766Z,26.15
2019-05-17T05:10:53.171Z,26.30
2019-05-17T05:13:26.442Z,26.16
2019-05-17T05:15:58.220Z,25.95
2019-05-17T05:18:32.518Z,25.21
2019-05-17T05:21:03.911Z,24.52
2019-05-17T05:23:35.846Z,24.07
2019-05-17T05:26:07.934Z,23.76
2019-05-17T05:28:41.884Z,23.40
2019-05-17T05:31:13.428Z,23.28
2019-05-17T05:33:45.063Z,23.35
2019-05-17T05:36:17.662Z,23.53
2019-05-17T05:38:51.459Z,23.59
2019-05-17T05:41:22.734Z,23.84
2019-05-17T05:43:54.514Z,23.87
2019-05-17T05:46:26.078Z,24.21
2019-05-17T05:48:57.740Z,24.53
2019-05-17T05:51:31.840Z,24.88
2019-05-17T05:54:04.844Z,25.07
2019-05-17T05:56:38.099Z,25.02
2019-05-17T05:59:12.061Z,25.23
2019-05-17T06:01:43.265Z,25.71
2019-05-17T06:04:16.678Z,25.90
2019-05-17T06:06:52.219Z,25.91
2019-05-17T06:09:26.321Z,25.77
2019-05-17T06:11:58.133Z,25.37
2019-05-17T06:14:32.196Z,25.29
2019-05-17T06:17:03.300Z,25.54
2019-05-17T06:19:36.111Z,25.58
2019-05-17T06:22:09.087Z,25.75
2019-05-17T06:24:42.540Z,25.87
2019-05-17T06:27:17.618Z,25.80
2019-05-17T06:29:51.534Z,25.75
2019-05-17T06:32:23.010Z,25.64
2019-05-17T06:34:56.267Z,25.55
2019-05-17T06:37:28.050Z,25.47
2019-05-17T06:40:02.108Z,25.51
2019-05-17T06:42:40.458Z,25.72
2019-05-17T06:45:07.562Z,25.97
2019-05-17T06:47:39.182Z,26.26
2019-05-17T06:50:13.852Z,26.26
2019-05-17T06:52:45.001Z,26.29
2019-05-17T06:55:16.834Z,26.34
2019-05-17T06:57:48.597Z,26.58
2019-05-17T07:00:23.906Z,26.88
2019-05-17T07:02:55.540Z,26.66
2019-05-17T07:05:30.278Z,26.49
2019-05-17T07:08:02.173Z,26.38
2019-05-17T07:10:33.965Z,25.99
2019-05-17T07:13:10.333Z,26.11
2019-05-17T07:15:47.337Z,26.30
2019-05-17T07:18:16.764Z,26.39
2019-05-17T07:20:50.347Z,26.28
2019-05-17T07:23:23.775Z,26.58
2019-05-17T07:25:59.470Z,26.76
2019-05-17T07:28:31.714Z,26.90
2019-05-17T07:31:03.828Z,26.94
2019-05-17T07:33:35.598Z,26.86
2019-05-17T07:36:07.467Z,26.95
2019-05-17T07:38:39.741Z,26.94
2019-05-17T07:41:12.053Z,27.08
2019-05-17T07:43:46.057Z,27.10
2019-05-17T07:46:21.473Z,27.02
2019-05-17T07:48:53.406Z,27.21
2019-05-17T07:51:29.957Z,27.02
2019-05-17T07:54:06.453Z,27.07
2019-05-17T07:56:40.189Z,27.09
2019-05-17T07:59:13.850Z,26.84
2019-05-17T08:01:45.792Z,26.85
2019-05-17T08:04:20.455Z,27.29
2019-05-17T08:06:52.295Z,27.23
2019-05-17T08:09:24.093Z,27.65
2019-05-17T08:11:56.909Z,27.99
2019-05-17T08:14:32.935Z,28.00
2019-05-17T08:17:02.826Z,28.08
2019-05-17T08:19:34.563Z,28.12
2019-05-17T08:22:09.629Z,28.21
2019-05-17T08:24:40.660Z,28.21
2019-05-17T08:27:13.597Z,28.31
2019-05-17T08:29:50.058Z,27.87
2019-05-17T08:32:25.871Z,28.13
2019-05-17T08:35:00.338Z,28.47
2019-05-17T08:37:32.335Z,28.68
2019-05-17T08:40:07.101Z,28.50
2019-05-17T08:42:40.697Z,28.16
2019-05-17T08:45:14.406Z,27.87
2019-05-17T08:47:46.198Z,27.68
2019-05-17T08:50:20.014Z,27.90
2019-05-17T08:52:51.785Z,28.14
2019-05-17T08:55:23.495Z,28.36
2019-05-17T08:57:55.212Z,28.69
2019-05-17T09:00:31.274Z,28.46
2019-05-17T09:03:02.695Z,28.44
2019-05-17T09:05:36.656Z,28.38
2019-05-17T09:08:10.399Z,28.45
2019-05-17T09:10:41.717Z,28.24
2019-05-17T09:13:15.056Z,28.26
2019-05-17T09:15:49.390Z,28.36
2019-05-17T09:18:24.406Z,28.41
2019-05-17T09:20:56.222Z,28.37
2019-05-17T09:23:30.450Z,28.14
2019-05-17T09:26:02.528Z,28.30
2019-05-17T09:28:35.761Z,28.26
2019-05-17T09:31:11.090Z,28.36
2019-05-17T09:33:42.766Z,27.98
2019-05-17T09:36:14.394Z,28.01
2019-05-17T09:38:49.519Z,28.00
2019-05-17T09:41:21.352Z,28.18
2019-05-17T09:43:53.093Z,28.55
2019-05-17T09:46:26.709Z,28.65
2019-05-17T09:49:01.106Z,28.48
2019-05-17T09:51:40.200Z,28.64
2019-05-17T09:54:13.729Z,28.85
2019-05-17T09:56:45.967Z,28.76
2019-05-17T09:59:20.392Z,28.81
2019-05-17T10:01:52.246Z,28.67
2019-05-17T10:04:23.984Z,28.88
2019-05-17T10:06:55.738Z,29.01
2019-05-17T10:09:27.814Z,29.05
2019-05-17T10:12:00.049Z,29.22
2019-05-17T10:14:32.028Z,29.27
2019-05-17T10:17:04.928Z,29.29
2019-05-17T10:19:40.042Z,29.00
2019-05-17T10:22:12.153Z,28.85
2019-05-17T10:24:45.252Z,28.78
2019-05-17T10:27:19.664Z,28.80
2019-05-17T10:29:53.308Z,28.89
2019-05-17T10:32:26.452Z,29.03
2019-05-17T10:35:00.318Z,29.06
2019-05-17T10:37:32.161Z,29.17
2019-05-17T10:40:04.832Z,29.30
2019-05-17T10:42:36.625Z,29.43
2019-05-17T10:45:11.156Z,29.41
2019-05-17T10:47:43.257Z,29.36
2019-05-17T10:50:15.003Z,29.25
2019-05-17T10:52:47.794Z,29.14
2019-05-17T10:55:20.099Z,29.09
2019-05-17T10:57:53.048Z,29.43
2019-05-17T11:00:26.271Z,29.74
2019-05-17T11:03:00.476Z,29.81
2019-05-17T11:05:32.590Z,29.93
2019-05-17T11:08:05.712Z,29.79
2019-05-17T11:10:39.279Z,29.09
2019-05-17T11:13:10.673Z,29.17
2019-05-17T11:15:43.295Z,29.02
2019-05-17T11:18:16.331Z,29.05
2019-05-17T11:20:49.931Z,29.24
2019-05-17T11:23:21.629Z,29.42
2019-05-17T11:25:53.427Z,29.55
2019-05-17T11:28:25.151Z,29.59
2019-05-17T11:30:56.843Z,29.69
2019-05-17T11:33:29.071Z,29.73
2019-05-17T11:36:00.899Z,29.70
2019-05-17T11:38:34.390Z,29.50
2019-05-17T11:41:20.376Z,29.08
2019-05-17T11:43:39.906Z,29.00
2019-05-17T11:46:13.204Z,28.75
2019-05-17T11:48:45.962Z,28.71
2019-05-17T11:51:19.679Z,28.96
2019-05-17T11:53:51.833Z,29.20
2019-05-17T11:56:26.789Z,29.20
2019-05-17T11:59:00.710Z,29.15
2019-05-17T12:01:33.203Z,29.28
2019-05-17T12:04:08.332Z,29.08
2019-05-17T12:06:41.562Z,29.15
2019-05-17T12:09:14.476Z,29.44
2019-05-17T12:11:46.519Z,29.63
2019-05-17T12:14:19.516Z,29.72
2019-05-17T12:16:51.675Z,29.88
2019-05-17T12:19:23.445Z,29.85
2019-05-17T12:21:56.366Z,30.02
2019-05-17T12:24:30.964Z,29.92
2019-05-17T12:27:04.804Z,29.53
2019-05-17T12:29:36.826Z,29.12
2019-05-17T12:32:08.582Z,29.11
2019-05-17T12:34:40.200Z,29.10
2019-05-17T12:37:11.912Z,29.08
2019-05-17T12:39:43.803Z,29.10
2019-05-17T12:42:16.099Z,29.12
2019-05-17T12:44:47.822Z,29.27
2019-05-17T12:47:19.655Z,29.38
2019-05-17T12:49:51.636Z,29.29
2019-05-17T12:52:25.760Z,29.18
2019-05-17T12:54:58.773Z,29.16
2019-05-17T12:57:31.076Z,28.97
2019-05-17T13:00:07.754Z,28.71
2019-05-17T13:02:40.640Z,28.62
2019-05-17T13:05:12.618Z,28.45
2019-05-17T13:07:45.100Z,28.63
2019-05-17T13:10:19.341Z,28.76
2019-05-17T13:12:54.789Z,28.83
2019-05-17T13:15:26.933Z,28.89
2019-05-17T13:17:59.488Z,29.01
2019-05-17T13:20:31.356Z,28.96
2019-05-17T13:23:07.646Z,28.97
2019-05-17T13:25:47.970Z,29.01
2019-05-17T13:28:19.778Z,28.81
2019-05-17T13:30:52.331Z,28.48
2019-05-17T13:33:24.664Z,28.22
2019-05-17T13:35:58.689Z,28.13
2019-05-17T13:38:30.580Z,28.35
2019-05-17T13:41:03.838Z,28.65
2019-05-17T13:43:35.645Z,28.85
2019-05-17T13:46:07.389Z,28.86
2019-05-17T13:48:41.684Z,28.83
2019-05-17T13:51:14.443Z,28.90
2019-05-17T13:53:46.533Z,28.93
2019-05-17T13:56:20.373Z,28.91
2019-05-17T13:58:54.775Z,28.87
2019-05-17T14:01:26.964Z,28.93
2019-05-17T14:04:00.258Z,28.80
2019-05-17T14:06:32.559Z,28.85
2019-05-17T14:09:08.090Z,28.96
2019-05-17T14:11:43.703Z,28.94
2019-05-17T14:14:15.733Z,29.00
2019-05-17T14:16:49.545Z,28.91
2019-05-17T14:19:22.536Z,28.87
2019-05-17T14:21:55.276Z,28.83
2019-05-17T14:24:29.348Z,28.79
2019-05-17T14:27:06.555Z,28.78
2019-05-17T14:29:38.124Z,28.90
2019-05-17T14:32:14.186Z,28.86
2019-05-17T14:34:49.604Z,28.75
2019-05-17T14:37:23.139Z,28.64
2019-05-17T14:39:57.825Z,28.51
2019-05-17T14:42:32.543Z,28.53
2019-05-17T14:45:08.724Z,28.56
2019-05-17T14:47:45.180Z,28.54
2019-05-17T14:50:19.819Z,28.55
2019-05-17T14:52:53.108Z,28.56
2019-05-17T14:55:27.145Z,28.62
2019-05-17T14:57:58.898Z,28.59
2019-05-17T15:00:31.661Z,28.58
2019-05-17T15:03:07.548Z,28.48
2019-05-17T15:05:40.199Z,28.48
2019-05-17T15:08:12.000Z,28.48
2019-05-17T15:10:43.792Z,28.44
2019-05-17T15:13:16.817Z,28.42
2019-05-17T15:15:48.587Z,28.36
2019-05-17T15:18:21.220Z,28.35
2019-05-17T15:20:54.429Z,28.37
2019-05-17T15:23:26.127Z,28.32
2019-05-17T15:26:01.145Z,28.33
2019-05-17T15:28:32.883Z,28.33
2019-05-17T15:31:04.663Z,28.25
2019-05-17T15:33:36.800Z,28.20
2019-05-17T15:36:08.724Z,28.11
2019-05-17T15:38:40.616Z,28.03
2019-05-17T15:41:13.939Z,27.97
2019-05-17T15:43:45.997Z,27.92
2019-05-17T15:46:21.114Z,27.97
2019-05-17T15:48:54.568Z,27.97
2019-05-17T15:51:26.432Z,27.92
2019-05-17T15:53:58.315Z,27.85
2019-05-17T15:56:30.247Z,27.76
2019-05-17T15:59:02.543Z,27.59
2019-05-17T16:01:36.918Z,27.51
2019-05-17T16:04:09.882Z,27.44
2019-05-17T16:06:42.020Z,27.42
2019-05-17T16:09:13.774Z,27.35
2019-05-17T16:11:46.898Z,27.31
2019-05-17T16:14:19.664Z,27.28
2019-05-17T16:16:52.387Z,27.17
2019-05-17T16:19:31.657Z,27.12
2019-05-17T16:22:05.485Z,27.09
2019-05-17T16:24:37.350Z,27.07
2019-05-17T16:27:09.206Z,27.00
2019-05-17T16:29:43.859Z,26.94
2019-05-17T16:32:15.596Z,26.84
2019-05-17T16:34:47.321Z,26.74
2019-05-17T16:37:20.728Z,26.69
2019-05-17T16:39:52.726Z,26.60
2019-05-17T16:42:24.698Z,26.60
2019-05-17T16:44:56.553Z,26.56
2019-05-17T16:47:33.031Z,26.46
2019-05-17T16:50:07.961Z,26.46
2019-05-17T16:52:39.711Z,26.39
2019-05-17T16:55:12.600Z,26.27
2019-05-17T16:57:45.828Z,26.27
2019-05-17T17:00:39.163Z,26.24
2019-05-17T17:03:13.905Z,26.21
2019-05-17T17:05:48.556Z,26.12
2019-05-17T17:08:20.993Z,26.10
2019-05-17T17:10:55.000Z,26.07
2019-05-17T17:13:33.127Z,26.00
2019-05-17T17:16:03.141Z,25.92
2019-05-17T17:18:36.661Z,25.89
2019-05-17T17:21:08.597Z,25.82
2019-05-17T17:23:41.941Z,25.79
2019-05-17T17:26:16.088Z,25.75
2019-05-17T17:28:47.919Z,25.70
2019-05-17T17:31:20.562Z,25.65
2019-05-17T17:33:53.158Z,25.61
2019-05-17T17:36:28.014Z,25.53
2019-05-17T17:39:00.018Z,25.53
2019-05-17T17:41:33.993Z,25.46
2019-05-17T17:44:09.457Z,25.44
2019-05-17T17:46:47.074Z,25.40
2019-05-17T17:49:19.046Z,25.34
2019-05-17T17:51:52.847Z,25.28
2019-05-17T17:54:26.369Z,25.21
2019-05-17T17:56:58.764Z,25.17
2019-05-17T17:59:36.958Z,25.13
2019-05-17T18:02:10.108Z,25.12
2019-05-17T18:04:45.224Z,25.07
2019-05-17T18:07:17.278Z,25.04
2019-05-17T18:09:49.769Z,24.96
2019-05-17T18:12:22.403Z,24.93
2019-05-17T18:14:56.378Z,24.87
2019-05-17T18:17:39.026Z,24.84
2019-05-17T18:20:09.884Z,24.78
2019-05-17T18:22:42.936Z,24.74
2019-05-17T18:25:18.049Z,24.67
2019-05-17T18:27:49.775Z,24.63
2019-05-17T18:30:21.756Z,24.62
2019-05-17T18:32:56.824Z,24.59
2019-05-17T18:35:28.777Z,24.51
2019-05-17T18:38:04.590Z,24.50
2019-05-17T18:44:27.282Z,24.50
2019-05-17T18:46:53.750Z,24.38
2019-05-17T18:49:26.766Z,24.29
2019-05-17T18:51:58.632Z,24.24
2019-05-17T18:54:33.306Z,24.20
2019-05-17T18:57:08.126Z,24.16
2019-05-17T18:59:46.916Z,24.13
2019-05-17T19:02:21.582Z,24.09
2019-05-17T19:04:58.135Z,24.07
2019-05-17T19:07:31.811Z,23.99
2019-05-17T19:10:08.105Z,23.90
2019-05-17T19:12:39.895Z,23.88
2019-05-17T19:15:14.767Z,23.82
2019-05-17T19:17:48.461Z,23.84
2019-05-17T19:20:24.845Z,23.81
2019-05-17T19:23:00.911Z,23.75
2019-05-17T19:25:38.106Z,23.72
2019-05-17T19:28:11.209Z,23.67
2019-05-17T19:30:45.141Z,23.63
2019-05-17T19:33:20.354Z,23.58
2019-05-17T19:35:55.618Z,23.58
2019-05-17T19:38:27.375Z,23.48
2019-05-17T19:41:03.274Z,23.50
2019-05-17T19:43:35.500Z,23.49
2019-05-17T19:46:07.334Z,23.47
2019-05-17T19:48:42.567Z,23.41
2019-05-17T19:51:17.313Z,23.35
2019-05-17T19:53:49.227Z,23.33
2019-05-17T19:56:25.818Z,23.21
2019-05-17T19:58:57.880Z,23.22
2019-05-17T20:01:32.088Z,23.16
2019-05-17T20:04:05.604Z,23.11
2019-05-17T20:06:39.986Z,23.05
2019-05-17T20:09:15.771Z,22.96
2019-05-17T20:11:57.300Z,22.98
2019-05-17T20:14:31.125Z,22.97
2019-05-17T20:17:03.863Z,22.83
2019-05-17T20:19:36.431Z,22.82
2019-05-17T20:22:09.609Z,22.78
2019-05-17T20:24:43.751Z,22.69
2019-05-17T20:27:19.854Z,22.66
2019-05-17T20:29:51.587Z,22.60
2019-05-17T20:32:23.384Z,22.50
2019-05-17T20:34:58.444Z,22.49
2019-05-17T20:37:31.319Z,22.46
2019-05-17T20:40:05.331Z,22.43
2019-05-17T20:42:38.493Z,22.46
2019-05-17T20:45:12.364Z,22.43
2019-05-17T20:47:45.749Z,22.34
2019-05-17T20:50:20.058Z,22.34
2019-05-17T20:52:54.258Z,22.28
2019-05-17T20:55:27.757Z,22.23
2019-05-17T20:58:00.152Z,22.18
2019-05-17T21:00:33.465Z,22.09
2019-05-17T21:03:05.298Z,22.03
2019-05-17T21:05:37.188Z,21.97
2019-05-17T21:08:09.650Z,21.91
2019-05-17T21:10:45.557Z,21.84
2019-05-17T21:13:22.048Z,21.84
2019-05-17T21:15:56.599Z,21.78
2019-05-17T21:18:31.552Z,21.67
2019-05-17T21:21:03.784Z,21.69
2019-05-17T21:23:36.971Z,21.64
2019-05-17T21:26:13.798Z,21.61
2019-05-17T21:28:47.343Z,21.59
2019-05-17T21:31:18.869Z,21.58
2019-05-17T21:33:50.638Z,21.47
2019-05-17T21:36:22.431Z,21.44
2019-05-17T21:38:54.153Z,21.36
2019-05-17T21:41:26.876Z,21.37
2019-05-17T21:43:58.851Z,21.30
2019-05-17T21:46:30.569Z,21.32
2019-05-17T21:49:02.281Z,21.29
2019-05-17T21:51:33.930Z,21.30
2019-05-17T21:54:06.667Z,21.23
2019-05-17T21:56:39.698Z,21.22
2019-05-17T21:59:15.409Z,21.18
2019-05-17T22:01:47.968Z,21.15
2019-05-17T22:04:30.222Z,21.06
2019-05-17T22:07:04.060Z,21.11
2019-05-17T22:09:49.160Z,21.00
2019-05-17T22:12:29.793Z,21.01
2019-05-17T22:15:03.468Z,20.94
2019-05-17T22:17:38.415Z,21.00
2019-05-17T22:20:14.785Z,20.97
2019-05-17T22:22:47.488Z,20.96
2019-05-17T22:25:19.180Z,20.96
2019-05-17T22:27:50.838Z,20.91
2019-05-17T22:30:23.174Z,20.88
2019-05-17T22:32:56.803Z,20.83
2019-05-17T22:35:28.759Z,20.80
2019-05-17T22:38:00.686Z,20.75
2019-05-17T22:40:33.527Z,20.70
2019-05-17T22:43:05.478Z,20.64
2019-05-17T22:45:38.496Z,20.72
2019-05-17T22:48:10.279Z,20.68
2019-05-17T22:50:42.125Z,20.60
2019-05-17T22:53:17.193Z,20.54
2019-05-17T22:55:51.311Z,20.47
2019-05-17T22:58:25.536Z,20.47
2019-05-17T23:00:57.293Z,20.46
2019-05-17T23:03:29.179Z,20.38
2019-05-17T23:06:01.997Z,20.39
2019-05-17T23:08:33.612Z,20.36
2019-05-17T23:11:09.009Z,20.33
2019-05-17T23:13:45.972Z,20.30
2019-05-17T23:16:20.340Z,20.29
2019-05-17T23:19:08.819Z,20.21
2019-05-17T23:21:41.459Z,20.17
2019-05-17T23:24:13.045Z,20.06
2019-05-17T23:26:44.876Z,20.10
2019-05-17T23:29:18.747Z,20.10
2019-05-17T23:31:52.613Z,20.06
2019-05-17T23:34:24.539Z,20.00
2019-05-17T23:36:56.541Z,19.96
2019-05-17T23:39:28.618Z,19.92
2019-05-17T23:42:00.509Z,19.85
2019-05-17T23:44:32.582Z,19.88
2019-05-17T23:47:07.361Z,19.85
2019-05-17T23:49:38.360Z,19.80
2019-05-17T23:52:10.092Z,19.74
2019-05-17T23:54:41.838Z,19.76
2019-05-17T23:57:13.451Z,19.71
2019-05-17T23:59:45.021Z,19.76
